Time;durP1;ratioP1;P1;durP2;ratioP2;P2;SDS_P1;SDS_P2;PMS_P1;PMS_P2;Temp;Humidity;BMP_temperature;BMP_pressure;BME280_temperature;BME280_humidity;BME280_pressure;Samples;Min_cycle;Max_cycle;Signal;HPM_P1;HPM_P2
2022/04/08 00:02:20;;;;;;;12.13;2.23;;;;;;;;;;5092663;28;20044;-67
2022/04/08 00:04:46;;;;;;;11.70;1.90;;;;;;;;;;5101486;28;20122;-67
2022/04/08 00:07:12;;;;;;;10.07;2.03;;;;;;;;;;5108748;28;20050;-67
2022/04/08 00:09:38;;;;;;;9.50;1.53;;;;;;;;;;5088932;28;20508;-67
2022/04/08 00:12:05;;;;;;;7.83;1.20;;;;;;;;;;5088597;28;20486;-67
2022/04/08 00:14:32;;;;;;;10.17;2.43;;;;;;;;;;5108262;28;20050;-67
2022/04/08 00:16:58;;;;;;;16.60;3.33;;;;;;;;;;5106421;28;20097;-67
2022/04/08 00:19:24;;;;;;;9.70;1.43;;;;;;;;;;5110247;28;20052;-67
2022/04/08 00:21:50;;;;;;;8.23;1.90;;;;;;;;;;5105919;28;20041;-67
2022/04/08 00:24:17;;;;;;;11.10;2.50;;;;;;;;;;5109862;28;20089;-68
2022/04/08 00:26:45;;;;;;;6.53;1.50;;;;;;;;;;5108917;28;20050;-67
2022/04/08 00:29:12;;;;;;;11.97;2.27;;;;;;;;;;5109381;28;20524;-67
2022/04/08 00:31:38;;;;;;;10.63;2.73;;;;;;;;;;5109133;28;20108;-67
2022/04/08 00:34:04;;;;;;;12.90;2.43;;;;;;;;;;5070897;28;20383;-67
2022/04/08 00:36:30;;;;;;;14.37;1.67;;;;;;;;;;5089550;28;20104;-67
2022/04/08 00:38:57;;;;;;;12.10;1.77;;;;;;;;;;5089129;28;20082;-67
2022/04/08 00:41:23;;;;;;;15.73;2.67;;;;;;;;;;5070967;28;20731;-67
2022/04/08 00:43:49;;;;;;;7.23;1.20;;;;;;;;;;5089632;28;20421;-67
2022/04/08 00:46:15;;;;;;;7.90;1.37;;;;;;;;;;5099257;28;20181;-68
2022/04/08 00:48:41;;;;;;;7.03;1.97;;;;;;;;;;5114027;28;20524;-67
2022/04/08 00:51:08;;;;;;;13.13;1.50;;;;;;;;;;5096273;28;20058;-67
2022/04/08 00:53:37;;;;;;;10.87;1.50;;;;;;;;;;5093516;28;20116;-67
2022/04/08 00:56:03;;;;;;;10.47;1.40;;;;;;;;;;5093961;28;20409;-67
2022/04/08 00:58:30;;;;;;;9.43;1.20;;;;;;;;;;5093259;28;20056;-68
2022/04/08 01:00:56;;;;;;;7.10;1.60;;;;;;;;;;5092970;28;20044;-67
2022/04/08 01:03:22;;;;;;;10.73;1.53;;;;;;;;;;5093352;28;20109;-68
2022/04/08 01:05:48;;;;;;;8.27;1.87;;;;;;;;;;5096904;28;20043;-67
2022/04/08 01:08:17;;;;;;;5.93;1.17;;;;;;;;;;5097895;28;20497;-68
2022/04/08 01:10:43;;;;;;;10.57;1.50;;;;;;;;;;5113828;28;20421;-68
2022/04/08 01:13:09;;;;;;;5.17;1.60;;;;;;;;;;5112959;28;20059;-69
2022/04/08 01:15:35;;;;;;;9.03;3.03;;;;;;;;;;5113094;28;20047;-67
2022/04/08 01:18:01;;;;;;;9.10;2.40;;;;;;;;;;5092960;28;20075;-67
2022/04/08 01:20:27;;;;;;;8.20;1.50;;;;;;;;;;5092880;28;20048;-67
2022/04/08 01:22:53;;;;;;;12.13;1.60;;;;;;;;;;5111989;28;20043;-68
2022/04/08 01:25:19;;;;;;;14.20;2.07;;;;;;;;;;5079435;28;20413;-68
2022/04/08 01:27:45;;;;;;;15.87;2.77;;;;;;;;;;5109462;28;20039;-68
2022/04/08 01:30:12;;;;;;;13.60;2.63;;;;;;;;;;5109588;28;20124;-68
2022/04/08 01:32:38;;;;;;;16.43;2.73;;;;;;;;;;5093083;28;20051;-68
2022/04/08 01:35:05;;;;;;;17.83;3.33;;;;;;;;;;5101715;28;20105;-68
2022/04/08 01:37:31;;;;;;;11.17;2.10;;;;;;;;;;5098302;28;20127;-68
2022/04/08 01:39:57;;;;;;;16.30;2.17;;;;;;;;;;5077072;28;20589;-67
2022/04/08 01:42:24;;;;;;;15.73;2.13;;;;;;;;;;5110810;28;20040;-67
2022/04/08 01:44:51;;;;;;;18.30;1.90;;;;;;;;;;5112497;28;20131;-67
2022/04/08 01:47:17;;;;;;;15.87;2.07;;;;;;;;;;5111676;28;20048;-67
2022/04/08 01:49:43;;;;;;;12.13;2.70;;;;;;;;;;5112621;28;20050;-67
2022/04/08 01:52:09;;;;;;;8.30;1.50;;;;;;;;;;5100173;28;20044;-67
2022/04/08 01:54:35;;;;;;;9.57;1.70;;;;;;;;;;5092624;28;20047;-67
2022/04/08 01:57:01;;;;;;;10.03;2.67;;;;;;;;;;5092537;28;20036;-67
2022/04/08 01:59:27;;;;;;;11.27;2.00;;;;;;;;;;5092198;28;20079;-67
2022/04/08 02:01:53;;;;;;;15.43;2.27;;;;;;;;;;5097273;28;20136;-67
2022/04/08 02:04:19;;;;;;;14.87;2.50;;;;;;;;;;5110980;28;20039;-67
2022/04/08 02:06:45;;;;;;;18.63;2.43;;;;;;;;;;5096910;28;20044;-67
2022/04/08 02:09:12;;;;;;;16.73;2.33;;;;;;;;;;5103546;28;20065;-68
2022/04/08 02:11:38;;;;;;;19.20;2.30;;;;;;;;;;5111967;28;20052;-67
2022/04/08 02:14:04;;;;;;;13.23;2.57;;;;;;;;;;5103157;28;20069;-67
2022/04/08 02:16:30;;;;;;;15.70;2.07;;;;;;;;;;5091550;28;20040;-67
2022/04/08 02:18:59;;;;;;;23.53;4.30;;;;;;;;;;5110589;28;20043;-67
2022/04/08 02:21:25;;;;;;;23.83;2.80;;;;;;;;;;5111844;28;20040;-67
2022/04/08 02:23:52;;;;;;;15.30;3.07;;;;;;;;;;5111085;28;20048;-67
2022/04/08 02:26:19;;;;;;;10.23;2.30;;;;;;;;;;5103984;28;20474;-67
2022/04/08 02:28:45;;;;;;;21.87;2.83;;;;;;;;;;5091235;28;20410;-67
2022/04/08 02:31:11;;;;;;;15.40;2.80;;;;;;;;;;5098050;28;20043;-67
2022/04/08 02:33:37;;;;;;;22.60;3.57;;;;;;;;;;5111982;28;20047;-67
2022/04/08 02:36:04;;;;;;;26.73;2.90;;;;;;;;;;5076100;28;20143;-67
2022/04/08 02:38:30;;;;;;;20.23;2.70;;;;;;;;;;5104645;28;20455;-67
2022/04/08 02:40:56;;;;;;;20.87;3.87;;;;;;;;;;5111116;28;20044;-67
2022/04/08 02:43:22;;;;;;;29.33;3.80;;;;;;;;;;5111948;28;20508;-67
2022/04/08 02:45:49;;;;;;;12.80;2.00;;;;;;;;;;5110875;28;20043;-67
2022/04/08 02:48:15;;;;;;;12.60;2.43;;;;;;;;;;5111665;28;20054;-67
2022/04/08 02:50:41;;;;;;;14.37;2.43;;;;;;;;;;5092699;28;20065;-67
2022/04/08 02:53:08;;;;;;;14.07;2.17;;;;;;;;;;5111134;28;20069;-67
2022/04/08 02:55:35;;;;;;;14.13;3.23;;;;;;;;;;5110866;28;20048;-68
2022/04/08 02:58:01;;;;;;;21.67;3.27;;;;;;;;;;5103989;28;20387;-68
2022/04/08 03:00:27;;;;;;;17.03;2.73;;;;;;;;;;5091266;28;20036;-67
2022/04/08 03:02:53;;;;;;;10.77;2.17;;;;;;;;;;5093688;28;20042;-67
2022/04/08 03:05:20;;;;;;;10.93;2.03;;;;;;;;;;5102776;28;20040;-67
2022/04/08 03:07:46;;;;;;;6.53;1.70;;;;;;;;;;5091071;28;20044;-67
2022/04/08 03:10:13;;;;;;;10.87;2.17;;;;;;;;;;5105799;28;20105;-67
2022/04/08 03:12:39;;;;;;;9.67;2.30;;;;;;;;;;5111477;28;20502;-68
2022/04/08 03:15:05;;;;;;;13.00;1.77;;;;;;;;;;5110172;28;20590;-67
2022/04/08 03:17:31;;;;;;;13.03;1.70;;;;;;;;;;5108957;28;20032;-67
2022/04/08 03:19:58;;;;;;;9.10;1.97;;;;;;;;;;5110943;28;20047;-67
2022/04/08 03:22:24;;;;;;;12.97;1.87;;;;;;;;;;5110258;28;20044;-67
2022/04/08 03:24:51;;;;;;;10.50;2.00;;;;;;;;;;5111083;28;20379;-67
2022/04/08 03:27:18;;;;;;;8.73;1.70;;;;;;;;;;5109063;28;20036;-67
2022/04/08 03:29:44;;;;;;;10.67;1.90;;;;;;;;;;5102238;28;20929;-68
2022/04/08 03:32:10;;;;;;;10.87;2.80;;;;;;;;;;5104304;28;20082;-67
2022/04/08 03:34:37;;;;;;;11.93;2.30;;;;;;;;;;5109801;28;20058;-67
2022/04/08 03:37:03;;;;;;;13.07;3.63;;;;;;;;;;5090359;28;20055;-67
2022/04/08 03:39:29;;;;;;;24.03;4.07;;;;;;;;;;5104332;28;20092;-67
2022/04/08 03:41:55;;;;;;;19.97;2.73;;;;;;;;;;5110252;28;20043;-67
2022/04/08 03:44:21;;;;;;;25.27;4.63;;;;;;;;;;5109967;28;20043;-67
2022/04/08 03:46:47;;;;;;;20.00;3.23;;;;;;;;;;5092807;28;20051;-67
2022/04/08 03:49:17;;;;;;;20.13;3.50;;;;;;;;;;5099708;28;20052;-67
2022/04/08 03:51:44;;;;;;;15.87;3.20;;;;;;;;;;5090059;28;20040;-67
2022/04/08 03:54:10;;;;;;;14.83;2.57;;;;;;;;;;5098896;28;20040;-67
2022/04/08 03:56:37;;;;;;;13.13;2.10;;;;;;;;;;5109437;28;20054;-67
2022/04/08 03:59:03;;;;;;;12.00;2.27;;;;;;;;;;5099308;28;20040;-67
2022/04/08 04:01:30;;;;;;;17.87;2.83;;;;;;;;;;5110194;28;20054;-67
2022/04/08 04:03:56;;;;;;;14.93;4.20;;;;;;;;;;5109613;28;20504;-67
2022/04/08 04:06:22;;;;;;;24.90;3.03;;;;;;;;;;5092645;28;20051;-67
2022/04/08 04:08:48;;;;;;;18.33;2.63;;;;;;;;;;5110305;28;20047;-67
2022/04/08 04:11:16;;;;;;;21.97;4.80;;;;;;;;;;5109377;28;20057;-67
2022/04/08 04:13:42;;;;;;;25.33;3.90;;;;;;;;;;5091959;28;20054;-67
2022/04/08 04:16:09;;;;;;;23.53;4.17;;;;;;;;;;5109269;28;20040;-67
2022/04/08 04:18:35;;;;;;;23.83;3.77;;;;;;;;;;5110199;28;20424;-67
2022/04/08 04:21:01;;;;;;;15.13;2.67;;;;;;;;;;5089778;28;20036;-67
2022/04/08 04:23:27;;;;;;;11.53;3.13;;;;;;;;;;5090227;28;20067;-67
2022/04/08 04:25:53;;;;;;;18.43;2.47;;;;;;;;;;5091161;28;20055;-67
2022/04/08 04:28:19;;;;;;;18.40;3.23;;;;;;;;;;5110280;28;20096;-67
2022/04/08 04:30:45;;;;;;;12.10;2.93;;;;;;;;;;5091206;28;20044;-68
2022/04/08 04:33:11;;;;;;;11.83;2.37;;;;;;;;;;5100073;28;20040;-67
2022/04/08 04:35:38;;;;;;;21.97;3.50;;;;;;;;;;5095798;28;20488;-67
2022/04/08 04:38:04;;;;;;;11.10;2.33;;;;;;;;;;5109633;28;20082;-67
2022/04/08 04:40:30;;;;;;;23.33;3.30;;;;;;;;;;5098468;28;20499;-67
2022/04/08 04:42:56;;;;;;;12.57;3.00;;;;;;;;;;5089291;28;20040;-67
2022/04/08 04:45:22;;;;;;;12.30;3.10;;;;;;;;;;5093709;28;20043;-67
2022/04/08 04:47:48;;;;;;;17.87;3.07;;;;;;;;;;5088395;28;20115;-67
2022/04/08 04:50:14;;;;;;;16.20;3.27;;;;;;;;;;5088730;28;20047;-67
2022/04/08 04:52:41;;;;;;;22.70;3.03;;;;;;;;;;5079962;28;20047;-67
2022/04/08 04:55:07;;;;;;;10.70;2.40;;;;;;;;;;5108623;28;20044;-68
2022/04/08 04:57:34;;;;;;;17.03;3.47;;;;;;;;;;5109889;28;20040;-68
2022/04/08 05:00:00;;;;;;;16.13;3.53;;;;;;;;;;5096745;28;20414;-68
2022/04/08 05:02:26;;;;;;;22.53;4.00;;;;;;;;;;5104037;28;20044;-68
2022/04/08 05:04:52;;;;;;;10.77;3.30;;;;;;;;;;5108614;28;20040;-67
2022/04/08 05:07:18;;;;;;;17.40;3.67;;;;;;;;;;5088701;28;20077;-67
2022/04/08 05:09:44;;;;;;;22.90;6.20;;;;;;;;;;5088735;28;20039;-68
2022/04/08 05:12:10;;;;;;;13.27;3.10;;;;;;;;;;5087306;28;20525;-68
2022/04/08 05:14:36;;;;;;;21.70;4.30;;;;;;;;;;5090651;28;20058;-68
2022/04/08 05:17:02;;;;;;;21.23;3.87;;;;;;;;;;5089446;28;20053;-67
2022/04/08 05:19:28;;;;;;;24.20;4.47;;;;;;;;;;5085550;28;20048;-67
2022/04/08 05:21:54;;;;;;;19.33;3.90;;;;;;;;;;5089083;28;20110;-68
2022/04/08 05:24:20;;;;;;;15.20;3.33;;;;;;;;;;5088470;28;20071;-67
2022/04/08 05:26:46;;;;;;;24.57;6.17;;;;;;;;;;5088791;28;20043;-67
2022/04/08 05:29:12;;;;;;;27.40;4.53;;;;;;;;;;5094752;28;20047;-66
2022/04/08 05:31:38;;;;;;;16.60;3.90;;;;;;;;;;5103360;28;20089;-67
2022/04/08 05:34:04;;;;;;;51.73;7.00;;;;;;;;;;5093168;28;20047;-66
2022/04/08 05:36:30;;;;;;;11.13;2.93;;;;;;;;;;5112027;28;20145;-66
2022/04/08 05:38:56;;;;;;;12.47;2.70;;;;;;;;;;5112443;28;20048;-66
2022/04/08 05:41:23;;;;;;;13.60;3.10;;;;;;;;;;5112767;28;20625;-66
2022/04/08 05:43:49;;;;;;;14.50;2.83;;;;;;;;;;5071839;28;20043;-66
2022/04/08 05:46:15;;;;;;;8.50;3.40;;;;;;;;;;5092438;28;20772;-66
2022/04/08 05:48:41;;;;;;;10.27;2.87;;;;;;;;;;5091920;28;20115;-66
2022/04/08 05:51:07;;;;;;;9.23;3.47;;;;;;;;;;5092494;28;20862;-65
2022/04/08 05:53:33;;;;;;;9.73;3.47;;;;;;;;;;5091673;28;20352;-66
2022/04/08 05:56:00;;;;;;;11.97;3.80;;;;;;;;;;5092610;28;20287;-67
2022/04/08 05:58:26;;;;;;;9.93;4.23;;;;;;;;;;5103741;28;20039;-67
2022/04/08 06:00:52;;;;;;;9.67;3.67;;;;;;;;;;5097340;28;20302;-67
2022/04/08 06:03:18;;;;;;;5.73;3.07;;;;;;;;;;5074395;28;20080;-67
2022/04/08 06:05:44;;;;;;;16.70;4.80;;;;;;;;;;5092280;28;20118;-67
2022/04/08 06:08:10;;;;;;;8.60;3.90;;;;;;;;;;5092946;28;20413;-67
2022/04/08 06:10:36;;;;;;;7.03;3.13;;;;;;;;;;5106608;28;20035;-67
2022/04/08 06:13:02;;;;;;;16.77;3.70;;;;;;;;;;5087743;28;20058;-67
2022/04/08 06:15:29;;;;;;;8.80;2.87;;;;;;;;;;5092622;28;20455;-67
2022/04/08 06:17:56;;;;;;;4.63;2.60;;;;;;;;;;5105385;28;20048;-67
2022/04/08 06:20:22;;;;;;;7.57;3.00;;;;;;;;;;5110523;28;20031;-67
2022/04/08 06:22:49;;;;;;;10.07;3.33;;;;;;;;;;5110740;28;20070;-67
2022/04/08 06:25:19;;;;;;;7.10;2.93;;;;;;;;;;5056860;28;20498;-67
2022/04/08 06:27:45;;;;;;;7.53;2.37;;;;;;;;;;5076090;28;20506;-68
2022/04/08 06:30:13;;;;;;;6.00;2.03;;;;;;;;;;5078824;28;20413;-67
2022/04/08 06:32:39;;;;;;;6.37;1.77;;;;;;;;;;5102499;28;20067;-67
2022/04/08 06:35:06;;;;;;;5.83;2.20;;;;;;;;;;5091820;28;20048;-67
2022/04/08 06:37:32;;;;;;;3.57;1.90;;;;;;;;;;5090817;28;20071;-67
2022/04/08 06:40:02;;;;;;;8.73;2.93;;;;;;;;;;5077628;28;20048;-68
2022/04/08 06:42:28;;;;;;;6.60;2.93;;;;;;;;;;5084093;28;20067;-68
2022/04/08 06:44:54;;;;;;;6.07;2.70;;;;;;;;;;5090820;28;20067;-67
2022/04/08 06:47:20;;;;;;;7.20;2.20;;;;;;;;;;5091643;28;20506;-67
2022/04/08 06:49:46;;;;;;;8.77;2.83;;;;;;;;;;5091919;28;20032;-67
2022/04/08 06:52:13;;;;;;;7.87;2.50;;;;;;;;;;5101339;28;20047;-67
2022/04/08 06:54:39;;;;;;;6.10;2.37;;;;;;;;;;5090635;28;20048;-67
2022/04/08 06:57:05;;;;;;;6.13;1.80;;;;;;;;;;5072163;28;20550;-67
2022/04/08 06:59:31;;;;;;;4.33;1.33;;;;;;;;;;5091635;28;20135;-67
2022/04/08 07:01:57;;;;;;;5.00;1.87;;;;;;;;;;5092523;28;20074;-67
2022/04/08 07:04:23;;;;;;;4.20;1.60;;;;;;;;;;5102035;28;20043;-67
2022/04/08 07:06:49;;;;;;;5.63;1.70;;;;;;;;;;5092557;28;20036;-67
2022/04/08 07:09:15;;;;;;;6.07;2.30;;;;;;;;;;5090814;28;20528;-68
2022/04/08 07:11:41;;;;;;;9.73;2.40;;;;;;;;;;5107151;28;20493;-68
2022/04/08 07:14:07;;;;;;;10.53;2.87;;;;;;;;;;5090838;28;20047;-68
2022/04/08 07:16:33;;;;;;;6.87;2.00;;;;;;;;;;5090558;28;20067;-67
2022/04/08 07:18:59;;;;;;;11.40;2.33;;;;;;;;;;5074289;28;20052;-67
2022/04/08 07:21:26;;;;;;;9.27;2.83;;;;;;;;;;5091029;28;20040;-68
2022/04/08 07:23:52;;;;;;;8.37;3.30;;;;;;;;;;5073148;28;20453;-67
2022/04/08 07:26:20;;;;;;;5.07;2.37;;;;;;;;;;5091119;28;20101;-68
2022/04/08 07:28:47;;;;;;;8.20;3.03;;;;;;;;;;5091479;28;20058;-68
2022/04/08 07:31:13;;;;;;;9.80;2.83;;;;;;;;;;5105608;28;20044;-68
2022/04/08 07:33:39;;;;;;;6.43;3.27;;;;;;;;;;5104716;28;20417;-68
2022/04/08 07:36:06;;;;;;;7.80;3.33;;;;;;;;;;5072841;28;20056;-67
2022/04/08 07:38:32;;;;;;;10.07;3.93;;;;;;;;;;5095722;28;20101;-68
2022/04/08 07:40:58;;;;;;;8.63;3.07;;;;;;;;;;5091328;28;20581;-67
2022/04/08 07:43:25;;;;;;;8.17;3.30;;;;;;;;;;5090593;28;20087;-68
2022/04/08 07:45:51;;;;;;;8.37;3.20;;;;;;;;;;5089615;28;20077;-68
2022/04/08 07:48:17;;;;;;;10.90;3.80;;;;;;;;;;5055787;28;20112;-68
2022/04/08 07:50:43;;;;;;;10.37;4.23;;;;;;;;;;5060779;28;20486;-67
2022/04/08 07:53:09;;;;;;;11.53;2.73;;;;;;;;;;5090238;28;20052;-68
2022/04/08 07:55:35;;;;;;;7.97;3.40;;;;;;;;;;5089634;28;20047;-67
2022/04/08 07:58:04;;;;;;;12.33;3.80;;;;;;;;;;5090091;28;20138;-67
2022/04/08 08:00:31;;;;;;;11.80;3.00;;;;;;;;;;5095255;28;20126;-67
2022/04/08 08:02:58;;;;;;;22.20;5.77;;;;;;;;;;5095183;28;20502;-67
2022/04/08 08:05:24;;;;;;;29.57;6.63;;;;;;;;;;5098420;28;20040;-64
2022/04/08 08:07:55;;;;;;;31.37;6.53;;;;;;;;;;5099224;28;20424;-67
2022/04/08 08:10:27;;;;;;;11.37;5.30;;;;;;;;;;5098971;28;20086;-67
2022/04/08 08:12:54;;;;;;;35.50;6.87;;;;;;;;;;5078279;28;20052;-67
2022/04/08 08:15:21;;;;;;;24.50;5.00;;;;;;;;;;5088577;28;20047;-68
2022/04/08 08:17:47;;;;;;;13.87;5.87;;;;;;;;;;5094759;28;20039;-67
2022/04/08 08:20:14;;;;;;;11.33;4.07;;;;;;;;;;5099173;28;20035;-68
2022/04/08 08:22:44;;;;;;;12.63;3.80;;;;;;;;;;5097715;28;20040;-68
2022/04/08 08:25:11;;;;;;;9.47;3.13;;;;;;;;;;5099172;28;20085;-67
2022/04/08 08:27:37;;;;;;;14.53;4.43;;;;;;;;;;5099564;28;20044;-68
2022/04/08 08:30:04;;;;;;;11.57;5.63;;;;;;;;;;5081341;28;20508;-68
2022/04/08 08:32:30;;;;;;;13.93;4.70;;;;;;;;;;5098558;28;20094;-68
2022/04/08 08:34:56;;;;;;;10.97;4.83;;;;;;;;;;5079473;28;20067;-68
2022/04/08 08:37:22;;;;;;;12.77;4.50;;;;;;;;;;5088943;28;20047;-68
2022/04/08 08:39:48;;;;;;;8.60;3.23;;;;;;;;;;5091880;28;20040;-68
2022/04/08 08:42:14;;;;;;;12.17;3.77;;;;;;;;;;5100530;28;20044;-68
2022/04/08 08:44:41;;;;;;;6.93;2.50;;;;;;;;;;5097546;28;20550;-66
2022/04/08 08:47:11;;;;;;;6.97;1.83;;;;;;;;;;5091898;28;20051;-68
2022/04/08 08:49:39;;;;;;;9.10;2.10;;;;;;;;;;5089576;28;20125;-67
2022/04/08 08:52:07;;;;;;;4.77;2.13;;;;;;;;;;5071273;28;20052;-68
2022/04/08 08:54:33;;;;;;;9.33;3.07;;;;;;;;;;5089704;28;20067;-69
2022/04/08 08:57:02;;;;;;;8.57;2.30;;;;;;;;;;5089455;28;20048;-68
2022/04/08 08:59:29;;;;;;;8.23;2.50;;;;;;;;;;5071542;28;20048;-67
2022/04/08 09:02:01;;;;;;;5.77;2.77;;;;;;;;;;5107684;28;20044;-67
2022/04/08 09:04:27;;;;;;;8.07;3.20;;;;;;;;;;5109604;28;20044;-66
2022/04/08 09:06:54;;;;;;;10.97;3.70;;;;;;;;;;5112353;28;20039;-66
2022/04/08 09:09:30;;;;;;;10.70;3.83;;;;;;;;;;5095479;28;20043;-68
2022/04/08 09:11:57;;;;;;;15.07;4.00;;;;;;;;;;5113847;28;20056;-67
2022/04/08 09:14:28;;;;;;;14.47;4.70;;;;;;;;;;5078443;28;20421;-68
2022/04/08 09:17:04;;;;;;;10.33;3.57;;;;;;;;;;5113772;28;20119;-66
2022/04/08 09:19:34;;;;;;;18.30;5.30;;;;;;;;;;5113070;28;20047;-67
2022/04/08 09:22:00;;;;;;;13.60;4.23;;;;;;;;;;5101690;28;20056;-67
2022/04/08 09:24:27;;;;;;;13.97;4.40;;;;;;;;;;5099410;28;20050;-67
2022/04/08 09:26:57;;;;;;;12.33;4.63;;;;;;;;;;5097428;28;20050;-67
2022/04/08 09:29:24;;;;;;;17.73;4.07;;;;;;;;;;5098895;28;20047;-66
2022/04/08 09:31:51;;;;;;;12.47;3.67;;;;;;;;;;5094220;28;20765;-67
2022/04/08 09:34:17;;;;;;;21.20;7.30;;;;;;;;;;5113201;28;20047;-67
2022/04/08 09:36:44;;;;;;;16.57;5.43;;;;;;;;;;5095683;28;20827;-67
2022/04/08 09:39:10;;;;;;;12.43;5.17;;;;;;;;;;5083910;28;20047;-67
2022/04/08 09:41:44;;;;;;;14.83;4.43;;;;;;;;;;5101369;28;20542;-67
2022/04/08 09:44:14;;;;;;;14.57;3.63;;;;;;;;;;5073890;28;20048;-67
2022/04/08 09:46:41;;;;;;;15.83;3.80;;;;;;;;;;5092885;28;20063;-66
2022/04/08 09:49:07;;;;;;;23.63;5.97;;;;;;;;;;5093232;28;20495;-66
2022/04/08 09:51:37;;;;;;;15.30;3.93;;;;;;;;;;5100321;28;20044;-67
2022/04/08 09:54:05;;;;;;;12.67;2.60;;;;;;;;;;5102446;28;20043;-67
2022/04/08 09:56:31;;;;;;;7.40;1.77;;;;;;;;;;5086427;28;20408;-67
2022/04/08 09:59:03;;;;;;;7.00;2.00;;;;;;;;;;5101802;28;20051;-67
2022/04/08 10:01:29;;;;;;;8.80;2.60;;;;;;;;;;5099705;28;20080;-67
2022/04/08 10:03:56;;;;;;;12.33;2.53;;;;;;;;;;5101637;28;20043;-67
2022/04/08 10:06:23;;;;;;;13.50;3.87;;;;;;;;;;5101024;28;20118;-67
2022/04/08 10:08:49;;;;;;;11.37;2.20;;;;;;;;;;5100382;28;20044;-67
2022/04/08 10:11:19;;;;;;;11.17;2.13;;;;;;;;;;5101821;28;20110;-67
2022/04/08 10:14:03;;;;;;;12.00;2.40;;;;;;;;;;5099116;28;20052;-67
2022/04/08 10:16:31;;;;;;;10.17;2.47;;;;;;;;;;5100103;28;20438;-67
2022/04/08 10:19:04;;;;;;;10.93;2.43;;;;;;;;;;5099489;28;20414;-68
2022/04/08 10:21:30;;;;;;;;;;;;;;;;;;5100571;28;20338;-68
2022/04/08 10:23:56;;;;;;;11.03;3.33;;;;;;;;;;5100463;28;19963;-67
2022/04/08 10:26:27;;;;;;;12.27;2.40;;;;;;;;;;5101568;28;20040;-67
2022/04/08 10:28:54;;;;;;;13.30;2.40;;;;;;;;;;5101709;28;20564;-67
2022/04/08 10:31:22;;;;;;;10.30;3.30;;;;;;;;;;5100180;28;20043;-67
2022/04/08 10:33:50;;;;;;;8.00;2.00;;;;;;;;;;5101424;28;20109;-68
2022/04/08 10:36:16;;;;;;;10.20;1.90;;;;;;;;;;5100896;28;20472;-67
2022/04/08 10:38:42;;;;;;;9.13;2.03;;;;;;;;;;5101967;28;20043;-67
2022/04/08 10:41:11;;;;;;;7.77;1.50;;;;;;;;;;5100720;28;20039;-68
2022/04/08 10:43:46;;;;;;;7.27;2.00;;;;;;;;;;5100473;28;20048;-67
2022/04/08 10:46:12;;;;;;;9.67;1.90;;;;;;;;;;5099860;28;20036;-67
2022/04/08 10:48:39;;;;;;;7.50;1.90;;;;;;;;;;5100629;28;20081;-67
2022/04/08 10:51:15;;;;;;;8.10;2.03;;;;;;;;;;5082646;28;20048;-68
2022/04/08 10:53:42;;;;;;;10.20;1.80;;;;;;;;;;5078626;28;20036;-67
2022/04/08 10:56:12;;;;;;;10.17;2.23;;;;;;;;;;5098290;28;20121;-68
2022/04/08 10:58:44;;;;;;;15.47;2.20;;;;;;;;;;5101092;28;20543;-67
2022/04/08 11:01:14;;;;;;;8.27;2.10;;;;;;;;;;5102099;28;20054;-67
2022/04/08 11:03:45;;;;;;;7.30;1.40;;;;;;;;;;5100715;28;20150;-68
2022/04/08 11:06:12;;;;;;;10.27;2.53;;;;;;;;;;5074657;28;20051;-67
2022/04/08 11:08:38;;;;;;;9.17;1.70;;;;;;;;;;5096628;28;20065;-68
2022/04/08 11:11:04;;;;;;;9.00;1.70;;;;;;;;;;5099317;28;20048;-67
2022/04/08 11:13:30;;;;;;;13.73;2.20;;;;;;;;;;5097921;28;20047;-67
2022/04/08 11:15:56;;;;;;;10.57;2.53;;;;;;;;;;5098430;28;20128;-67
2022/04/08 11:18:24;;;;;;;13.20;2.17;;;;;;;;;;5099292;28;20529;-67
2022/04/08 11:20:50;;;;;;;8.97;2.30;;;;;;;;;;5094956;28;20413;-67
2022/04/08 11:23:30;;;;;;;5.67;1.87;;;;;;;;;;5101655;28;20052;-67
2022/04/08 11:25:56;;;;;;;8.23;1.83;;;;;;;;;;5097301;28;20039;-67
2022/04/08 11:28:23;;;;;;;7.13;1.70;;;;;;;;;;5099757;28;20040;-68
2022/04/08 11:30:54;;;;;;;8.87;2.47;;;;;;;;;;5078352;28;20059;-67
2022/04/08 11:33:20;;;;;;;7.70;2.47;;;;;;;;;;5099377;28;20047;-67
2022/04/08 11:35:47;;;;;;;8.77;1.87;;;;;;;;;;5083309;28;20063;-67
2022/04/08 11:38:18;;;;;;;6.13;1.77;;;;;;;;;;5096624;28;20647;-67
2022/04/08 11:40:45;;;;;;;8.63;1.97;;;;;;;;;;5099206;28;20058;-67
2022/04/08 11:43:18;;;;;;;9.43;2.07;;;;;;;;;;5100547;28;20039;-67
2022/04/08 11:45:45;;;;;;;6.40;2.03;;;;;;;;;;5100917;28;20044;-67
2022/04/08 11:48:18;;;;;;;10.47;2.30;;;;;;;;;;5097638;28;20398;-67
2022/04/08 11:50:45;;;;;;;8.37;2.17;;;;;;;;;;5102062;28;20968;-77
2022/04/08 11:53:15;;;;;;;11.77;3.17;;;;;;;;;;5095475;28;20044;-68
2022/04/08 11:55:51;;;;;;;8.70;2.30;;;;;;;;;;5099690;28;20039;-68
2022/04/08 11:58:18;;;;;;;12.83;2.73;;;;;;;;;;5098292;28;20043;-68
2022/04/08 12:00:46;;;;;;;8.87;2.40;;;;;;;;;;5096164;28;20112;-67
2022/04/08 12:03:17;;;;;;;4.60;1.63;;;;;;;;;;5096860;28;20047;-68
2022/04/08 12:05:47;;;;;;;7.53;1.77;;;;;;;;;;5099135;28;20036;-68
2022/04/08 12:08:13;;;;;;;6.37;1.80;;;;;;;;;;5099031;28;20043;-68
2022/04/08 12:10:40;;;;;;;6.03;1.13;;;;;;;;;;5098900;28;20096;-67
2022/04/08 12:13:13;;;;;;;5.63;1.60;;;;;;;;;;5088164;28;20143;-68
2022/04/08 12:15:43;;;;;;;7.55;1.52;;;;;;;;;;5095744;28;20139;-68
2022/04/08 12:18:10;;;;;;;7.70;1.87;;;;;;;;;;5090604;28;20052;-67
2022/04/08 12:20:40;;;;;;;6.80;1.67;;;;;;;;;;5095658;28;20047;-67
2022/04/08 12:23:09;;;;;;;10.83;2.20;;;;;;;;;;5109148;28;20039;-67
2022/04/08 12:25:36;;;;;;;7.03;1.77;;;;;;;;;;5089940;28;20131;-67
2022/04/08 12:28:09;;;;;;;6.53;1.70;;;;;;;;;;5104687;28;20036;-67
2022/04/08 12:30:35;;;;;;;9.13;2.22;;;;;;;;;;5097633;28;20528;-68
2022/04/08 12:33:01;;;;;;;8.77;2.07;;;;;;;;;;5087964;28;20113;-67
2022/04/08 12:35:27;;;;;;;10.60;1.70;;;;;;;;;;5096589;28;20497;-68
2022/04/08 12:37:54;;;;;;;12.00;2.57;;;;;;;;;;5096538;28;20044;-68
2022/04/08 12:40:20;;;;;;;9.07;1.67;;;;;;;;;;5097250;28;20044;-67
2022/04/08 12:42:46;;;;;;;7.20;1.70;;;;;;;;;;5097160;28;20051;-67
2022/04/08 12:45:12;;;;;;;12.20;1.87;;;;;;;;;;5104620;28;20044;-67
2022/04/08 12:47:38;;;;;;;6.77;1.37;;;;;;;;;;5100382;28;20491;-68
2022/04/08 12:50:07;;;;;;;4.70;1.20;;;;;;;;;;5094134;28;20044;-67
2022/04/08 12:52:34;;;;;;;7.40;1.77;;;;;;;;;;5073529;28;20075;-67
2022/04/08 12:55:00;;;;;;;6.10;1.10;;;;;;;;;;5087794;28;20593;-68
2022/04/08 12:57:28;;;;;;;4.03;0.83;;;;;;;;;;5095464;28;20123;-67
2022/04/08 12:59:54;;;;;;;6.57;1.00;;;;;;;;;;5097313;28;20047;-68
2022/04/08 13:02:20;;;;;;;2.90;0.80;;;;;;;;;;5096841;28;20036;-67
2022/04/08 13:04:46;;;;;;;4.90;1.20;;;;;;;;;;5093397;28;20040;-68
2022/04/08 13:07:12;;;;;;;7.43;0.93;;;;;;;;;;5098613;28;20417;-67
2022/04/08 13:09:37;;;;;;;5.37;0.90;;;;;;;;;;5095816;28;20028;-67
2022/04/08 13:12:04;;;;;;;8.17;1.47;;;;;;;;;;5080284;28;20043;-68
2022/04/08 13:14:30;;;;;;;6.20;1.27;;;;;;;;;;5097320;28;21063;-67
2022/04/08 13:16:56;;;;;;;4.40;1.07;;;;;;;;;;5097804;28;20117;-68
2022/04/08 13:19:22;;;;;;;7.43;1.30;;;;;;;;;;5097774;28;20519;-67
2022/04/08 13:21:48;;;;;;;7.13;1.03;;;;;;;;;;5080024;28;20496;-67
2022/04/08 13:24:16;;;;;;;4.90;1.50;;;;;;;;;;5094233;28;20512;-67
2022/04/08 13:26:43;;;;;;;6.00;1.30;;;;;;;;;;5099240;28;20168;-67
2022/04/08 13:29:10;;;;;;;4.47;0.90;;;;;;;;;;5094497;28;20665;-67
2022/04/08 13:31:37;;;;;;;5.07;1.00;;;;;;;;;;5094947;28;20062;-67
2022/04/08 13:34:04;;;;;;;5.33;1.50;;;;;;;;;;5091822;28;20052;-67
2022/04/08 13:36:30;;;;;;;7.37;1.20;;;;;;;;;;5089619;28;21056;-67
2022/04/08 13:38:56;;;;;;;7.50;1.10;;;;;;;;;;5089486;28;20505;-67
2022/04/08 13:41:22;;;;;;;5.63;1.57;;;;;;;;;;5093898;28;20044;-66
2022/04/08 13:43:48;;;;;;;7.20;1.00;;;;;;;;;;5087551;28;20097;-67
2022/04/08 13:46:14;;;;;;;7.73;1.60;;;;;;;;;;5087319;28;20043;-67
2022/04/08 13:48:40;;;;;;;4.80;1.67;;;;;;;;;;5087449;28;20121;-67
2022/04/08 13:51:06;;;;;;;7.27;1.67;;;;;;;;;;5087709;28;20488;-67
2022/04/08 13:53:32;;;;;;;6.70;1.40;;;;;;;;;;5089145;28;20414;-67
2022/04/08 13:55:58;;;;;;;9.07;1.93;;;;;;;;;;5093226;28;20476;-67
2022/04/08 13:58:24;;;;;;;8.67;1.87;;;;;;;;;;5102603;28;20127;-67
2022/04/08 14:00:50;;;;;;;8.47;1.33;;;;;;;;;;5099965;28;20047;-67
2022/04/08 14:03:16;;;;;;;7.63;1.40;;;;;;;;;;5100121;28;20413;-67
2022/04/08 14:05:42;;;;;;;6.07;1.70;;;;;;;;;;5101418;28;20143;-67
2022/04/08 14:08:08;;;;;;;6.70;1.27;;;;;;;;;;5100265;28;20533;-67
2022/04/08 14:10:35;;;;;;;6.80;1.50;;;;;;;;;;5101106;28;20035;-67
2022/04/08 14:13:03;;;;;;;7.67;1.40;;;;;;;;;;5106036;28;20051;-67
2022/04/08 14:15:30;;;;;;;6.03;2.03;;;;;;;;;;5110479;28;20039;-67
2022/04/08 14:17:56;;;;;;;8.00;1.77;;;;;;;;;;5109993;28;20413;-67
2022/04/08 14:20:22;;;;;;;5.87;1.63;;;;;;;;;;5110745;28;20134;-67
2022/04/08 14:22:48;;;;;;;7.37;1.73;;;;;;;;;;5093015;28;20044;-67
2022/04/08 14:25:14;;;;;;;8.77;1.37;;;;;;;;;;5091634;28;20563;-67
2022/04/08 14:27:40;;;;;;;6.30;1.70;;;;;;;;;;5092362;28;20044;-67
2022/04/08 14:30:06;;;;;;;8.23;1.70;;;;;;;;;;5091971;28;20044;-67
2022/04/08 14:32:33;;;;;;;7.37;1.67;;;;;;;;;;5091727;28;20391;-66
2022/04/08 14:35:00;;;;;;;6.93;1.93;;;;;;;;;;5091760;28;20066;-67